Time,TemperatureF,DewpointF,PressureIn,WindDirection,WindDirectionDegrees,WindSpeedMPH,WindSpeedGustMPH,Humidity,HourlyPrecipIn,Conditions,Clouds,dailyrainin,SolarRadiationWatts/m^2,SoftwareType,DateUTC
2013-08-31 00:22:00,69.0,52.0,-100.00,ESE,107,4.0,11.0,55,0.00,,,0.00,0.000000,,2013-08-31 06:22:00,
2013-08-31 00:32:00,69.0,52.0,-100.00,ESE,107,4.0,11.0,55,0.00,,,0.00,0.000000,,2013-08-31 06:32:00,
2013-08-31 00:42:00,69.0,52.0,-100.00,ESE,107,4.0,11.0,55,0.00,,,0.00,0.000000,,2013-08-31 06:42:00,
2013-08-31 00:52:00,69.0,52.0,-100.00,ESE,107,4.0,11.0,55,0.00,,,0.00,0.000000,,2013-08-31 06:52:00,
2013-08-31 01:22:00,69.0,54.0,-100.00,East,91,5.0,10.0,58,0.00,,,0.00,0.000000,,2013-08-31 07:22:00,
2013-08-31 01:32:00,69.0,54.0,-100.00,East,91,5.0,10.0,58,0.00,,,0.00,0.000000,,2013-08-31 07:32:00,
2013-08-31 01:42:00,69.0,54.0,-100.00,East,91,5.0,10.0,58,0.00,,,0.00,0.000000,,2013-08-31 07:42:00,
2013-08-31 01:52:00,69.0,54.0,-100.00,East,91,5.0,10.0,58,0.00,,,0.00,0.000000,,2013-08-31 07:52:00,
2013-08-31 02:22:00,66.0,53.0,-100.00,SSE,166,2.0,12.0,63,0.00,,,0.00,0.000000,,2013-08-31 08:22:00,
2013-08-31 02:32:00,66.0,53.0,-100.00,SSE,166,2.0,12.0,63,0.00,,,0.00,0.000000,,2013-08-31 08:32:00,
2013-08-31 02:42:00,66.0,53.0,-100.00,SSE,166,2.0,12.0,63,0.00,,,0.00,0.000000,,2013-08-31 08:42:00,
2013-08-31 02:52:00,66.0,53.0,-100.00,SSE,166,2.0,12.0,63,0.00,,,0.00,0.000000,,2013-08-31 08:52:00,
2013-08-31 03:23:00,66.0,53.0,-100.00,SE,127,3.0,6.0,64,0.00,,,0.00,0.000000,,2013-08-31 09:23:00,
2013-08-31 03:33:00,66.0,53.0,-100.00,SE,127,3.0,6.0,64,0.00,,,0.00,0.000000,,2013-08-31 09:33:00,
2013-08-31 03:43:00,66.0,53.0,-100.00,SE,127,3.0,6.0,64,0.00,,,0.00,0.000000,,2013-08-31 09:43:00,
2013-08-31 03:53:00,66.0,53.0,-100.00,SE,127,3.0,6.0,64,0.00,,,0.00,0.000000,,2013-08-31 09:53:00,
2013-08-31 04:23:00,65.0,52.0,-100.00,East,80,2.0,5.0,62,0.00,,,-99.99,0.000000,,2013-08-31 10:23:00,
2013-08-31 04:33:00,65.0,52.0,-100.00,East,80,2.0,5.0,62,0.00,,,-99.99,0.000000,,2013-08-31 10:33:00,
2013-08-31 04:43:00,65.0,52.0,-100.00,East,80,2.0,5.0,62,0.00,,,-99.99,0.000000,,2013-08-31 10:43:00,
2013-08-31 04:53:00,65.0,52.0,-100.00,East,80,2.0,5.0,62,0.00,,,-99.99,0.000000,,2013-08-31 10:53:00,
2013-08-31 05:21:00,63.0,52.0,-100.00,NE,47,0.0,7.0,68,0.00,,,0.00,0.000000,,2013-08-31 11:21:00,
2013-08-31 05:33:00,63.0,52.0,-100.00,NE,47,0.0,7.0,68,0.00,,,0.00,0.000000,,2013-08-31 11:33:00,
2013-08-31 05:42:00,63.0,52.0,-100.00,NE,47,0.0,7.0,68,0.00,,,0.00,0.000000,,2013-08-31 11:42:00,
2013-08-31 05:52:00,63.0,52.0,-100.00,NE,47,0.0,7.0,68,0.00,,,0.00,0.000000,,2013-08-31 11:52:00,
2013-08-31 06:22:00,61.0,51.0,-100.00,East,79,3.0,7.0,69,0.00,,,0.00,0.000000,,2013-08-31 12:22:00,
2013-08-31 06:31:00,61.0,51.0,-100.00,East,79,3.0,7.0,69,0.00,,,0.00,0.000000,,2013-08-31 12:31:00,
2013-08-31 06:42:00,61.0,51.0,-100.00,East,79,3.0,7.0,69,0.00,,,0.00,0.000000,,2013-08-31 12:42:00,
2013-08-31 06:52:00,61.0,51.0,-100.00,East,79,3.0,7.0,69,0.00,,,0.00,0.000000,,2013-08-31 12:52:00,
2013-08-31 07:22:00,60.0,49.0,-100.00,East,94,5.0,7.0,68,0.00,,,0.00,1.000000,,2013-08-31 13:22:00,
2013-08-31 07:32:00,60.0,49.0,-100.00,East,94,5.0,7.0,68,0.00,,,0.00,1.000000,,2013-08-31 13:32:00,
2013-08-31 07:42:00,60.0,49.0,-100.00,East,94,5.0,7.0,68,0.00,,,0.00,1.000000,,2013-08-31 13:42:00,
2013-08-31 07:52:00,60.0,49.0,-100.00,East,94,5.0,7.0,68,0.00,,,0.00,1.000000,,2013-08-31 13:52:00,
2013-08-31 08:22:00,68.0,53.0,-100.00,ESE,115,2.0,7.0,58,0.00,,,0.00,127.000000,,2013-08-31 14:22:00,
2013-08-31 08:32:00,68.0,53.0,-100.00,ESE,115,2.0,7.0,58,0.00,,,0.00,127.000000,,2013-08-31 14:32:00,
2013-08-31 08:42:00,68.0,53.0,-100.00,ESE,115,2.0,7.0,58,0.00,,,0.00,127.000000,,2013-08-31 14:42:00,
2013-08-31 08:52:00,68.0,53.0,-100.00,ESE,115,2.0,7.0,58,0.00,,,0.00,127.000000,,2013-08-31 14:52:00,
2013-08-31 09:23:00,73.0,53.0,-100.00,East,85,2.0,7.0,50,0.00,,,0.00,376.000000,,2013-08-31 15:23:00,
2013-08-31 09:34:00,73.0,53.0,-100.00,East,85,2.0,7.0,50,0.00,,,0.00,376.000000,,2013-08-31 15:34:00,
2013-08-31 09:44:00,73.0,53.0,-100.00,East,85,2.0,7.0,50,0.00,,,0.00,376.000000,,2013-08-31 15:44:00,
2013-08-31 09:55:00,73.0,53.0,-100.00,East,85,2.0,7.0,50,0.00,,,0.00,376.000000,,2013-08-31 15:55:00,
2013-08-31 10:25:00,80.0,53.0,-100.00,WSW,244,1.0,6.0,39,0.00,,,0.00,631.000000,,2013-08-31 16:25:00,
2013-08-31 10:34:00,80.0,53.0,-100.00,WSW,244,1.0,6.0,39,0.00,,,0.00,631.000000,,2013-08-31 16:34:00,
2013-08-31 10:44:00,80.0,53.0,-100.00,WSW,244,1.0,6.0,39,0.00,,,0.00,631.000000,,2013-08-31 16:44:00,
2013-08-31 10:52:00,80.0,53.0,-100.00,WSW,244,1.0,6.0,39,0.00,,,0.00,631.000000,,2013-08-31 16:52:00,
2013-08-31 11:23:00,83.0,51.0,-100.00,WSW,244,3.0,6.0,33,0.00,,,0.00,816.000000,,2013-08-31 17:23:00,
2013-08-31 11:34:00,83.0,51.0,-100.00,WSW,244,3.0,6.0,33,0.00,,,0.00,816.000000,,2013-08-31 17:34:00,
2013-08-31 11:42:00,83.0,51.0,-100.00,WSW,244,3.0,6.0,33,0.00,,,0.00,816.000000,,2013-08-31 17:42:00,
2013-08-31 11:53:00,83.0,51.0,-100.00,WSW,244,3.0,6.0,33,0.00,,,0.00,816.000000,,2013-08-31 17:53:00,
2013-08-31 12:21:00,86.0,49.0,-100.00,NW,322,4.0,8.0,28,0.00,,,0.00,1004.000000,,2013-08-31 18:21:00,
2013-08-31 12:32:00,86.0,49.0,-100.00,NW,322,4.0,8.0,28,0.00,,,0.00,1004.000000,,2013-08-31 18:32:00,
2013-08-31 12:42:00,86.0,49.0,-100.00,NW,322,4.0,8.0,28,0.00,,,0.00,1004.000000,,2013-08-31 18:42:00,
2013-08-31 12:52:00,86.0,49.0,-100.00,NW,322,4.0,8.0,28,0.00,,,0.00,1004.000000,,2013-08-31 18:52:00,
2013-08-31 13:22:00,90.0,48.0,-100.00,WNW,293,4.0,10.0,24,0.00,,,0.00,1105.000000,,2013-08-31 19:22:00,
2013-08-31 13:32:00,90.0,48.0,-100.00,WNW,293,4.0,10.0,24,0.00,,,0.00,1105.000000,,2013-08-31 19:32:00,
2013-08-31 13:42:00,90.0,48.0,-100.00,WNW,293,4.0,10.0,24,0.00,,,0.00,1105.000000,,2013-08-31 19:42:00,
2013-08-31 13:52:00,90.0,48.0,-100.00,WNW,293,4.0,10.0,24,0.00,,,0.00,1105.000000,,2013-08-31 19:52:00,
2013-08-31 14:22:00,90.0,47.0,-100.00,SW,234,6.0,11.0,23,0.00,,,0.00,1135.000000,,2013-08-31 20:22:00,
2013-08-31 14:32:00,90.0,47.0,-100.00,SW,234,6.0,11.0,23,0.00,,,0.00,1135.000000,,2013-08-31 20:32:00,
2013-08-31 14:42:00,90.0,47.0,-100.00,SW,234,6.0,11.0,23,0.00,,,0.00,1135.000000,,2013-08-31 20:42:00,
2013-08-31 14:52:00,90.0,47.0,-100.00,SW,234,6.0,11.0,23,0.00,,,0.00,1135.000000,,2013-08-31 20:52:00,
2013-08-31 15:22:00,92.0,48.0,-100.00,WNW,289,4.0,17.0,22,0.00,,,0.00,1068.000000,,2013-08-31 21:22:00,
2013-08-31 15:34:00,92.0,48.0,-100.00,WNW,289,4.0,17.0,22,0.00,,,0.00,1068.000000,,2013-08-31 21:34:00,
2013-08-31 15:44:00,92.0,48.0,-100.00,WNW,289,4.0,17.0,22,0.00,,,0.00,1068.000000,,2013-08-31 21:44:00,
2013-08-31 15:54:00,92.0,48.0,-100.00,WNW,289,4.0,17.0,22,0.00,,,0.00,1068.000000,,2013-08-31 21:54:00,
2013-08-31 16:23:00,90.0,47.0,-100.00,WNW,285,4.0,20.0,23,0.00,,,0.00,664.000000,,2013-08-31 22:23:00,
2013-08-31 16:32:00,90.0,47.0,-100.00,WNW,285,4.0,20.0,23,0.00,,,0.00,664.000000,,2013-08-31 22:32:00,
2013-08-31 16:43:00,90.0,47.0,-100.00,WNW,285,4.0,20.0,23,0.00,,,0.00,664.000000,,2013-08-31 22:43:00,
2013-08-31 16:53:00,90.0,47.0,-100.00,WNW,285,4.0,20.0,23,0.00,,,0.00,664.000000,,2013-08-31 22:53:00,
2013-08-31 18:21:00,74.0,57.0,-100.00,ESE,108,9.0,22.0,56,-99.99,,,0.02,174.000000,,2013-09-01 00:21:00,
2013-08-31 18:32:00,74.0,57.0,-100.00,ESE,108,9.0,22.0,56,-99.99,,,0.02,174.000000,,2013-09-01 00:32:00,
2013-08-31 18:42:00,74.0,57.0,-100.00,ESE,108,9.0,22.0,56,-99.99,,,0.02,174.000000,,2013-09-01 00:42:00,
2013-08-31 18:52:00,74.0,57.0,-100.00,ESE,108,9.0,22.0,56,-99.99,,,0.02,174.000000,,2013-09-01 00:52:00,
2013-08-31 19:21:00,69.0,57.0,-100.00,NE,37,12.0,16.0,66,0.00,,,0.02,16.000000,,2013-09-01 01:21:00,
2013-08-31 19:32:00,69.0,57.0,-100.00,NE,37,12.0,16.0,66,0.00,,,0.02,16.000000,,2013-09-01 01:32:00,
2013-08-31 19:42:00,69.0,57.0,-100.00,NE,37,12.0,16.0,66,0.00,,,0.02,16.000000,,2013-09-01 01:42:00,
2013-08-31 19:52:00,69.0,57.0,-100.00,NE,37,12.0,16.0,66,0.00,,,0.02,16.000000,,2013-09-01 01:52:00,
2013-08-31 20:22:00,70.0,56.0,-100.00,NW,307,3.0,14.0,62,0.01,,,0.03,6.000000,,2013-09-01 02:22:00,
2013-08-31 20:32:00,70.0,56.0,-100.00,NW,307,3.0,14.0,62,0.01,,,0.03,6.000000,,2013-09-01 02:32:00,
2013-08-31 20:42:00,70.0,56.0,-100.00,NW,307,3.0,14.0,62,0.01,,,0.03,6.000000,,2013-09-01 02:42:00,
2013-08-31 20:53:00,70.0,56.0,-100.00,NW,307,3.0,14.0,62,0.01,,,0.03,6.000000,,2013-09-01 02:53:00,
2013-08-31 21:23:00,67.0,56.0,-100.00,WNW,299,1.0,12.0,68,0.00,,,0.03,0.000000,,2013-09-01 03:23:00,
2013-08-31 21:35:00,67.0,56.0,-100.00,WNW,299,1.0,12.0,68,0.00,,,0.03,0.000000,,2013-09-01 03:35:00,
2013-08-31 21:44:00,67.0,56.0,-100.00,WNW,299,1.0,12.0,68,0.00,,,0.03,0.000000,,2013-09-01 03:44:00,
2013-08-31 21:54:00,67.0,56.0,-100.00,WNW,299,1.0,12.0,68,0.00,,,0.03,0.000000,,2013-09-01 03:54:00,
2013-08-31 22:24:00,68.0,59.0,-100.00,SE,135,2.0,5.0,73,0.00,,,0.03,0.000000,,2013-09-01 04:24:00,
2013-08-31 22:34:00,68.0,59.0,-100.00,SE,135,2.0,5.0,73,0.00,,,0.03,0.000000,,2013-09-01 04:34:00,
2013-08-31 22:43:00,68.0,59.0,-100.00,SE,135,2.0,5.0,73,0.00,,,0.03,0.000000,,2013-09-01 04:43:00,
2013-08-31 22:54:00,68.0,59.0,-100.00,SE,135,2.0,5.0,73,0.00,,,0.03,0.000000,,2013-09-01 04:54:00,
2013-08-31 23:23:00,66.0,60.0,-100.00,NNE,20,1.0,3.0,80,0.00,,,0.03,0.000000,,2013-09-01 05:23:00,
2013-08-31 23:34:00,66.0,60.0,-100.00,NNE,20,1.0,3.0,80,0.00,,,0.03,0.000000,,2013-09-01 05:34:00,
2013-08-31 23:43:00,66.0,60.0,-100.00,NNE,20,1.0,3.0,80,0.00,,,0.03,0.000000,,2013-09-01 05:43:00,
2013-08-31 23:52:00,66.0,60.0,-100.00,NNE,20,1.0,3.0,80,0.00,,,0.03,0.000000,,2013-09-01 05:52:00,